createdAt,value
2018-12-16T00:00:19.505Z,54.30
2018-12-16T00:02:47.049Z,54.40
2018-12-16T00:05:14.611Z,54.10
2018-12-16T00:07:42.145Z,54.20
2018-12-16T00:10:09.675Z,54.50
2018-12-16T00:12:37.233Z,54.20
2018-12-16T00:15:05.318Z,54.10
2018-12-16T00:17:32.867Z,53.90
2018-12-16T00:20:00.413Z,54.10
2018-12-16T00:22:29.968Z,53.30
2018-12-16T00:24:58.309Z,53.10
2018-12-16T00:27:25.972Z,53.20
2018-12-16T00:29:53.653Z,53.00
2018-12-16T00:32:21.214Z,52.40
2018-12-16T00:34:48.731Z,52.60
2018-12-16T00:37:16.256Z,53.30
2018-12-16T00:39:43.813Z,52.60
2018-12-16T00:42:11.346Z,52.60
2018-12-16T00:44:38.965Z,52.70
2018-12-16T00:47:06.498Z,52.50
2018-12-16T00:49:34.035Z,52.70
2018-12-16T00:52:01.597Z,52.60
2018-12-16T00:54:29.160Z,52.70
2018-12-16T00:56:56.998Z,52.70
2018-12-16T00:59:24.508Z,52.30
2018-12-16T01:01:52.063Z,52.30
2018-12-16T01:04:19.879Z,52.20
2018-12-16T01:06:47.444Z,52.40
2018-12-16T01:09:15.015Z,52.50
2018-12-16T01:11:42.556Z,52.50
2018-12-16T01:14:10.109Z,52.50
2018-12-16T01:16:37.634Z,52.30
2018-12-16T01:19:05.190Z,52.10
2018-12-16T01:21:33.083Z,52.30
2018-12-16T01:24:00.732Z,52.30
2018-12-16T01:26:28.306Z,52.10
2018-12-16T01:28:55.816Z,51.60
2018-12-16T01:31:23.401Z,51.50
2018-12-16T01:33:50.991Z,51.10
2018-12-16T01:36:18.554Z,50.90
2018-12-16T01:38:46.113Z,51.20
2018-12-16T01:41:13.637Z,51.40
2018-12-16T01:43:41.236Z,51.20
2018-12-16T01:46:08.870Z,51.30
2018-12-16T01:48:36.424Z,50.80
2018-12-16T01:51:03.991Z,51.00
2018-12-16T01:53:31.517Z,50.70
2018-12-16T01:55:59.074Z,50.60
2018-12-16T01:58:26.644Z,50.90
2018-12-16T02:00:54.203Z,50.90
2018-12-16T02:03:21.932Z,50.80
2018-12-16T02:05:49.477Z,50.50
2018-12-16T02:08:17.122Z,51.30
2018-12-16T02:10:44.685Z,50.80
2018-12-16T02:13:12.346Z,50.80
2018-12-16T02:15:39.931Z,50.90
2018-12-16T02:18:07.495Z,50.60
2018-12-16T02:20:35.040Z,50.70
2018-12-16T02:23:02.553Z,50.50
2018-12-16T02:25:30.430Z,51.00
2018-12-16T02:27:57.977Z,51.10
2018-12-16T02:30:28.638Z,50.80
2018-12-16T02:32:56.230Z,51.00
2018-12-16T02:35:23.799Z,51.20
2018-12-16T02:37:51.342Z,50.30
2018-12-16T02:40:19.194Z,50.50
2018-12-16T02:42:46.752Z,50.50
2018-12-16T02:45:15.930Z,50.40
2018-12-16T02:47:46.753Z,50.50
2018-12-16T02:50:15.039Z,50.40
2018-12-16T02:52:42.567Z,50.70
2018-12-16T02:55:17.949Z,50.70
2018-12-16T02:57:45.490Z,50.70
2018-12-16T03:00:13.195Z,50.80
2018-12-16T03:02:40.751Z,50.80
2018-12-16T03:05:08.300Z,50.60
2018-12-16T03:07:35.857Z,50.50
2018-12-16T03:10:04.259Z,50.50
2018-12-16T03:12:31.813Z,50.30
2018-12-16T03:14:59.403Z,51.00
2018-12-16T03:17:27.180Z,50.80
2018-12-16T03:19:54.688Z,50.70
2018-12-16T03:22:22.231Z,50.90
2018-12-16T03:24:49.791Z,51.00
2018-12-16T03:27:17.340Z,51.10
2018-12-16T03:29:44.973Z,51.20
2018-12-16T03:32:12.540Z,50.70
2018-12-16T03:34:40.385Z,51.00
2018-12-16T03:37:08.829Z,51.30
2018-12-16T03:39:36.383Z,51.60
2018-12-16T03:42:03.997Z,51.70
2018-12-16T03:44:31.546Z,51.60
2018-12-16T03:46:59.120Z,51.60
2018-12-16T03:49:26.665Z,51.60
2018-12-16T03:51:54.217Z,51.20
2018-12-16T03:54:22.440Z,51.50
2018-12-16T03:56:50.124Z,51.90
2018-12-16T03:59:18.315Z,52.00
2018-12-16T04:01:47.988Z,52.00
2018-12-16T04:04:15.531Z,52.30
2018-12-16T04:06:43.474Z,52.40
2018-12-16T04:09:11.353Z,52.40
2018-12-16T04:11:38.910Z,52.30
2018-12-16T04:14:06.533Z,52.70
2018-12-16T04:16:34.105Z,52.90
2018-12-16T04:19:01.659Z,52.30
2018-12-16T04:21:29.472Z,52.00
2018-12-16T04:23:57.229Z,52.20
2018-12-16T04:26:24.747Z,52.30
2018-12-16T04:28:52.450Z,52.70
2018-12-16T04:31:20.225Z,52.80
2018-12-16T04:33:47.788Z,52.90
2018-12-16T04:36:15.392Z,52.90
2018-12-16T04:38:43.007Z,52.90
2018-12-16T04:41:10.622Z,52.80
2018-12-16T04:43:38.151Z,52.50
2018-12-16T04:46:05.734Z,52.50
2018-12-16T04:48:33.241Z,51.90
2018-12-16T04:51:00.823Z,51.90
2018-12-16T04:53:34.832Z,52.10
2018-12-16T04:55:58.283Z,52.10
2018-12-16T04:58:25.826Z,52.30
2018-12-16T05:00:53.352Z,52.40
2018-12-16T05:03:20.909Z,52.30
2018-12-16T05:05:48.420Z,52.10
2018-12-16T05:08:15.974Z,52.30
2018-12-16T05:10:43.481Z,52.20
2018-12-16T05:13:11.049Z,52.30
2018-12-16T05:15:38.673Z,52.40
2018-12-16T05:18:06.246Z,52.20
2018-12-16T05:20:33.888Z,52.20
2018-12-16T05:23:01.473Z,52.60
2018-12-16T05:25:29.009Z,53.10
2018-12-16T05:27:56.734Z,54.60
2018-12-16T05:30:24.307Z,56.30
2018-12-16T05:32:51.817Z,57.40
2018-12-16T05:35:19.501Z,59.40
2018-12-16T05:37:47.017Z,60.80
2018-12-16T05:40:14.581Z,60.70
2018-12-16T05:42:42.125Z,61.40
2018-12-16T05:45:09.950Z,61.40
2018-12-16T05:47:37.570Z,62.60
2018-12-16T05:50:05.971Z,62.70
2018-12-16T05:52:33.524Z,63.50
2018-12-16T05:55:01.151Z,64.20
2018-12-16T05:57:28.815Z,64.80
2018-12-16T05:59:56.374Z,65.30
2018-12-16T06:02:23.937Z,65.60
2018-12-16T06:04:51.490Z,65.50
2018-12-16T06:07:19.057Z,66.10
2018-12-16T06:09:46.651Z,66.30
2018-12-16T06:12:14.252Z,66.90
2018-12-16T06:14:41.756Z,66.90
2018-12-16T06:17:09.277Z,67.20
2018-12-16T06:19:36.805Z,67.40
2018-12-16T06:22:04.309Z,67.30
2018-12-16T06:24:31.948Z,67.60
2018-12-16T06:26:59.466Z,68.00
2018-12-16T06:29:27.003Z,68.50
2018-12-16T06:31:55.326Z,68.30
2018-12-16T06:34:23.346Z,68.20
2018-12-16T06:36:51.014Z,68.50
2018-12-16T06:39:18.553Z,69.30
2018-12-16T06:41:46.440Z,69.80
2018-12-16T06:44:13.956Z,69.70
2018-12-16T06:46:41.567Z,70.30
2018-12-16T06:49:09.133Z,70.40
2018-12-16T06:51:37.173Z,70.00
2018-12-16T06:54:04.718Z,70.20
2018-12-16T06:56:32.275Z,70.20
2018-12-16T06:58:59.838Z,70.30
2018-12-16T07:01:27.595Z,70.70
2018-12-16T07:03:55.156Z,71.00
2018-12-16T07:06:22.832Z,71.10
2018-12-16T07:08:50.380Z,70.80
2018-12-16T07:11:17.975Z,71.00
2018-12-16T07:13:45.523Z,70.50
2018-12-16T07:16:13.082Z,69.80
2018-12-16T07:18:40.656Z,69.10
2018-12-16T07:21:08.300Z,69.00
2018-12-16T07:23:35.912Z,68.60
2018-12-16T07:26:03.501Z,69.10
2018-12-16T07:28:31.074Z,69.10
2018-12-16T07:30:58.622Z,69.40
2018-12-16T07:33:26.185Z,69.50
2018-12-16T07:35:53.716Z,69.30
2018-12-16T07:38:21.256Z,69.50
2018-12-16T07:40:48.780Z,68.80
2018-12-16T07:43:16.326Z,69.10
2018-12-16T07:45:44.030Z,69.60
2018-12-16T07:48:11.647Z,68.40
2018-12-16T07:50:39.195Z,68.40
2018-12-16T07:53:06.715Z,68.10
2018-12-16T07:55:34.325Z,67.90
2018-12-16T07:58:01.983Z,67.60
2018-12-16T08:00:29.533Z,67.00
2018-12-16T08:02:57.054Z,66.80
2018-12-16T08:05:24.647Z,67.40
2018-12-16T08:07:52.304Z,66.80
2018-12-16T08:10:19.835Z,66.70
2018-12-16T08:12:47.445Z,66.90
2018-12-16T08:15:15.017Z,67.00
2018-12-16T08:17:42.542Z,66.50
2018-12-16T08:20:11.062Z,66.00
2018-12-16T08:22:38.613Z,66.50
2018-12-16T08:25:06.351Z,66.90
2018-12-16T08:27:33.894Z,66.80
2018-12-16T08:30:01.427Z,67.20
2018-12-16T08:32:28.994Z,67.60
2018-12-16T08:34:56.582Z,67.10
2018-12-16T08:37:24.132Z,66.90
2018-12-16T08:39:51.697Z,67.00
2018-12-16T08:42:19.425Z,66.40
2018-12-16T08:44:46.968Z,67.00
2018-12-16T08:47:14.475Z,66.80
2018-12-16T08:49:42.081Z,66.20
2018-12-16T08:52:09.596Z,66.80
2018-12-16T08:54:37.136Z,65.80
2018-12-16T08:57:04.765Z,65.60
2018-12-16T08:59:32.401Z,66.60
2018-12-16T09:01:59.926Z,66.80
2018-12-16T09:04:28.049Z,66.70
2018-12-16T09:06:55.609Z,65.80
2018-12-16T09:09:23.751Z,67.10
2018-12-16T09:11:51.320Z,67.10
2018-12-16T09:14:18.866Z,66.50
2018-12-16T09:16:46.376Z,66.50
2018-12-16T09:19:13.923Z,66.60
2018-12-16T09:21:41.588Z,66.40
2018-12-16T09:24:09.136Z,66.90
2018-12-16T09:26:36.684Z,67.10
2018-12-16T09:29:04.229Z,67.70
2018-12-16T09:31:31.748Z,67.70
2018-12-16T09:33:59.367Z,68.20
2018-12-16T09:36:26.902Z,68.10
2018-12-16T09:38:54.456Z,68.30
2018-12-16T09:41:21.970Z,68.70
2018-12-16T09:43:49.638Z,69.10
2018-12-16T09:46:17.182Z,69.10
2018-12-16T09:48:44.701Z,69.50
2018-12-16T09:51:12.261Z,69.80
2018-12-16T09:53:39.768Z,69.80
2018-12-16T09:56:07.717Z,69.20
2018-12-16T09:58:35.294Z,69.80
2018-12-16T10:01:02.856Z,70.10
2018-12-16T10:03:30.421Z,70.00
2018-12-16T10:05:58.240Z,70.10
2018-12-16T10:08:26.162Z,70.10
2018-12-16T10:10:53.721Z,70.80
2018-12-16T10:13:21.326Z,70.90
2018-12-16T10:18:30.882Z,70.70
2018-12-16T10:20:59.008Z,70.30
2018-12-16T10:23:27.022Z,70.70
2018-12-16T10:25:54.589Z,70.60
2018-12-16T10:28:22.158Z,70.70
2018-12-16T10:30:49.822Z,70.30
2018-12-16T10:33:17.776Z,70.90
2018-12-16T10:35:45.529Z,71.40
2018-12-16T10:38:13.111Z,70.90
2018-12-16T10:40:40.677Z,71.00
2018-12-16T10:43:09.662Z,70.60
2018-12-16T10:45:37.425Z,70.10
2018-12-16T10:48:05.313Z,70.20
2018-12-16T10:50:32.883Z,70.60
2018-12-16T10:53:00.454Z,70.40
2018-12-16T10:55:28.021Z,70.30
2018-12-16T10:57:55.561Z,70.20
2018-12-16T11:00:29.056Z,70.90
2018-12-16T11:02:56.597Z,70.60
2018-12-16T11:05:24.718Z,71.10
2018-12-16T11:07:52.277Z,70.90
2018-12-16T11:10:19.934Z,71.00
2018-12-16T11:12:48.052Z,70.90
2018-12-16T11:15:15.564Z,70.30
2018-12-16T11:17:43.130Z,70.30
2018-12-16T11:20:10.733Z,70.00
2018-12-16T11:22:38.638Z,70.30
2018-12-16T11:25:08.352Z,70.30
2018-12-16T11:27:36.119Z,70.60
2018-12-16T11:30:06.608Z,70.60
2018-12-16T11:32:36.519Z,70.40
2018-12-16T11:35:05.626Z,70.60
2018-12-16T11:37:33.494Z,70.40
2018-12-16T11:40:01.047Z,69.80
2018-12-16T11:42:28.563Z,69.60
2018-12-16T11:44:56.126Z,69.70
2018-12-16T11:47:23.770Z,70.20
2018-12-16T11:49:52.020Z,70.30
2018-12-16T11:52:19.576Z,70.60
2018-12-16T11:54:47.080Z,70.70
2018-12-16T11:57:14.646Z,70.80
2018-12-16T11:59:42.288Z,70.40
2018-12-16T12:02:09.873Z,70.70
2018-12-16T12:04:37.407Z,70.30
2018-12-16T12:07:04.967Z,70.40
2018-12-16T12:09:32.499Z,70.40
2018-12-16T12:12:00.046Z,69.90
2018-12-16T12:14:27.636Z,69.70
2018-12-16T12:16:56.073Z,69.50
2018-12-16T12:19:28.500Z,70.20
2018-12-16T12:21:56.862Z,70.70
2018-12-16T12:24:24.406Z,71.50
2018-12-16T12:26:51.964Z,71.10
2018-12-16T12:29:19.609Z,70.40
2018-12-16T12:31:47.162Z,70.30
2018-12-16T12:34:14.766Z,70.10
2018-12-16T12:36:42.305Z,69.80
2018-12-16T12:39:09.887Z,69.80
2018-12-16T12:41:38.222Z,70.10
2018-12-16T12:44:05.744Z,70.10
2018-12-16T12:46:33.382Z,70.50
2018-12-16T12:49:13.488Z,70.30
2018-12-16T12:51:41.117Z,70.70
2018-12-16T12:54:09.014Z,70.60
2018-12-16T12:56:36.585Z,70.40
2018-12-16T12:59:04.203Z,70.40
2018-12-16T13:01:31.748Z,70.70
2018-12-16T13:03:59.326Z,70.60
2018-12-16T13:06:28.142Z,71.00
2018-12-16T13:08:55.726Z,71.00
2018-12-16T13:11:23.524Z,70.40
2018-12-16T13:13:51.818Z,70.70
2018-12-16T13:16:19.373Z,70.90
2018-12-16T13:18:47.233Z,71.40
2018-12-16T13:21:14.984Z,71.50
2018-12-16T13:23:42.566Z,71.70
2018-12-16T13:26:10.143Z,71.60
2018-12-16T13:28:37.708Z,71.20
2018-12-16T13:31:05.246Z,71.20
2018-12-16T13:33:32.790Z,71.20
2018-12-16T13:36:00.780Z,71.00
2018-12-16T13:38:28.342Z,71.00
2018-12-16T13:40:55.933Z,71.20
2018-12-16T13:43:23.724Z,71.20
2018-12-16T13:45:51.258Z,71.20
2018-12-16T13:48:18.844Z,71.20
2018-12-16T13:50:46.520Z,70.90
2018-12-16T13:53:14.704Z,70.80
2018-12-16T13:55:42.690Z,71.30
2018-12-16T13:58:10.262Z,71.20
2018-12-16T14:00:37.826Z,71.30
2018-12-16T14:03:05.352Z,71.50
2018-12-16T14:05:32.936Z,71.40
2018-12-16T14:08:00.458Z,71.20
2018-12-16T14:10:28.958Z,71.10
2018-12-16T14:12:56.549Z,71.30
2018-12-16T14:15:24.250Z,71.90
2018-12-16T14:17:51.795Z,72.10
2018-12-16T14:20:19.397Z,71.60
2018-12-16T14:22:46.967Z,71.60
2018-12-16T14:25:14.564Z,71.40
2018-12-16T14:27:42.169Z,71.60
2018-12-16T14:30:10.687Z,71.90
2018-12-16T14:32:38.249Z,71.90
2018-12-16T14:35:08.337Z,71.80
2018-12-16T14:37:35.958Z,71.30
2018-12-16T14:40:06.026Z,71.10
2018-12-16T14:42:33.853Z,71.50
2018-12-16T14:45:01.369Z,71.80
2018-12-16T14:47:28.985Z,71.80
2018-12-16T14:49:56.572Z,72.00
2018-12-16T14:52:24.127Z,72.20
2018-12-16T14:54:52.006Z,72.10
2018-12-16T14:57:19.542Z,72.10
2018-12-16T14:59:47.257Z,71.90
2018-12-16T15:02:14.772Z,72.10
2018-12-16T15:04:42.333Z,72.00
2018-12-16T15:07:09.849Z,71.70
2018-12-16T15:09:38.106Z,71.60
2018-12-16T15:12:05.678Z,71.80
2018-12-16T15:14:33.245Z,71.80
2018-12-16T15:17:01.265Z,71.70
2018-12-16T15:19:28.818Z,71.70
2018-12-16T15:21:56.387Z,71.60
2018-12-16T15:24:23.929Z,72.30
2018-12-16T15:26:52.674Z,72.10
2018-12-16T15:29:20.646Z,71.80
2018-12-16T15:31:48.197Z,72.40
2018-12-16T15:34:15.758Z,72.00
2018-12-16T15:36:43.289Z,71.80
2018-12-16T15:39:11.817Z,71.90
2018-12-16T15:41:39.831Z,72.30
2018-12-16T15:44:07.395Z,72.30
2018-12-16T15:46:34.957Z,72.00
2018-12-16T15:49:02.508Z,72.00
2018-12-16T15:51:31.401Z,72.10
2018-12-16T15:53:58.928Z,72.20
2018-12-16T15:56:26.521Z,72.00
2018-12-16T15:58:54.103Z,72.30
2018-12-16T16:01:21.693Z,72.30
2018-12-16T16:03:49.246Z,72.20
2018-12-16T16:06:17.137Z,72.30
2018-12-16T16:08:44.708Z,72.20
2018-12-16T16:11:12.257Z,72.00
2018-12-16T16:13:39.844Z,72.20
2018-12-16T16:16:07.412Z,72.00
2018-12-16T16:18:35.271Z,72.00
2018-12-16T16:21:03.272Z,72.00
2018-12-16T16:23:30.850Z,72.20
2018-12-16T16:25:58.459Z,72.20
2018-12-16T16:28:26.640Z,72.00
2018-12-16T16:30:55.118Z,72.20
2018-12-16T16:33:22.784Z,72.20
2018-12-16T16:35:51.094Z,72.70
2018-12-16T16:38:18.619Z,72.10
2018-12-16T16:40:46.461Z,72.40
2018-12-16T16:43:14.341Z,72.50
2018-12-16T16:45:42.086Z,72.70
2018-12-16T16:48:09.637Z,72.60
2018-12-16T16:50:37.264Z,73.30
2018-12-16T16:53:04.896Z,73.30
2018-12-16T16:55:33.385Z,73.60
2018-12-16T16:58:00.946Z,74.10
2018-12-16T17:00:28.551Z,74.20
2018-12-16T17:02:56.832Z,74.00
2018-12-16T17:05:24.443Z,74.00
2018-12-16T17:07:51.973Z,74.40
2018-12-16T17:10:20.582Z,74.80
2018-12-16T17:12:48.174Z,74.80
2018-12-16T17:15:16.045Z,74.90
2018-12-16T17:17:44.313Z,74.30
2018-12-16T17:20:11.956Z,74.60
2018-12-16T17:22:39.480Z,74.70
2018-12-16T17:25:07.224Z,74.00
2018-12-16T17:27:34.837Z,73.80
2018-12-16T17:30:02.515Z,74.10
2018-12-16T17:32:30.107Z,73.90
2018-12-16T17:34:57.644Z,73.90
2018-12-16T17:37:25.279Z,73.80
2018-12-16T17:39:52.889Z,74.20
2018-12-16T17:42:20.602Z,74.50
2018-12-16T17:44:48.892Z,74.10
2018-12-16T17:47:16.563Z,74.00
2018-12-16T17:49:44.086Z,74.10
2018-12-16T17:52:11.678Z,74.20
2018-12-16T17:54:39.203Z,74.30
2018-12-16T17:57:06.904Z,74.90
2018-12-16T17:59:34.468Z,74.30
2018-12-16T18:02:02.602Z,74.40
2018-12-16T18:04:30.158Z,74.90
2018-12-16T18:06:57.668Z,74.00
2018-12-16T18:09:25.692Z,73.70
2018-12-16T18:11:53.266Z,73.60
2018-12-16T18:14:20.809Z,73.50
2018-12-16T18:16:48.381Z,73.40
2018-12-16T18:19:15.910Z,73.80
2018-12-16T18:21:43.777Z,74.10
2018-12-16T18:24:11.328Z,74.60
2018-12-16T18:26:44.043Z,74.40
2018-12-16T18:29:08.621Z,73.80
2018-12-16T18:31:36.198Z,73.70
2018-12-16T18:34:03.963Z,73.90
2018-12-16T18:36:31.512Z,74.10
2018-12-16T18:38:59.083Z,74.30
2018-12-16T18:41:26.624Z,74.30
2018-12-16T18:43:55.009Z,74.30
2018-12-16T18:46:22.586Z,74.20
2018-12-16T18:48:50.143Z,74.20
2018-12-16T18:51:17.664Z,73.90
2018-12-16T18:53:45.227Z,73.80
2018-12-16T18:56:12.736Z,74.00
2018-12-16T18:58:40.312Z,73.80
2018-12-16T19:01:07.906Z,73.70
2018-12-16T19:03:35.604Z,73.60
2018-12-16T19:06:03.113Z,73.60
2018-12-16T19:08:30.690Z,73.60
2018-12-16T19:10:58.245Z,73.60
2018-12-16T19:13:25.819Z,73.30
2018-12-16T19:15:53.568Z,73.90
2018-12-16T19:18:22.193Z,73.10
2018-12-16T19:20:49.750Z,73.30
2018-12-16T19:23:17.310Z,73.90
2018-12-16T19:25:44.891Z,73.80
2018-12-16T19:28:12.494Z,73.70
2018-12-16T19:30:40.058Z,73.50
2018-12-16T19:33:07.753Z,73.20
2018-12-16T19:35:35.281Z,73.50
2018-12-16T19:38:03.346Z,73.20
2018-12-16T19:40:31.355Z,73.50
2018-12-16T19:42:59.119Z,73.50
2018-12-16T19:45:26.685Z,73.30
2018-12-16T19:47:54.288Z,73.50
2018-12-16T19:50:23.105Z,73.40
2018-12-16T19:52:50.623Z,73.30
2018-12-16T19:55:18.983Z,73.60
2018-12-16T19:57:46.498Z,73.30
2018-12-16T20:00:14.136Z,73.40
2018-12-16T20:02:41.983Z,73.20
2018-12-16T20:05:24.049Z,73.30
2018-12-16T20:07:51.572Z,73.50
2018-12-16T20:10:19.131Z,73.10
2018-12-16T20:12:46.669Z,73.50
2018-12-16T20:15:14.290Z,73.50
2018-12-16T20:17:42.818Z,73.50
2018-12-16T20:20:10.471Z,73.40
2018-12-16T20:22:38.017Z,73.20
2018-12-16T20:25:06.049Z,73.20
2018-12-16T20:27:33.613Z,73.30
2018-12-16T20:30:01.146Z,73.40
2018-12-16T20:32:28.710Z,73.40
2018-12-16T20:34:56.237Z,72.90
2018-12-16T20:37:23.812Z,73.30
2018-12-16T20:39:51.388Z,73.40
2018-12-16T20:42:19.753Z,73.20
2018-12-16T20:44:47.474Z,72.70
2018-12-16T20:47:15.004Z,72.90
2018-12-16T20:49:42.593Z,72.60
2018-12-16T20:52:10.539Z,72.50
2018-12-16T20:54:38.105Z,72.60
2018-12-16T20:57:05.781Z,72.50
2018-12-16T20:59:33.309Z,73.50
2018-12-16T21:02:00.865Z,72.80
2018-12-16T21:04:28.466Z,72.90
2018-12-16T21:06:55.992Z,73.00
2018-12-16T21:09:23.548Z,73.00
2018-12-16T21:11:56.827Z,73.10
2018-12-16T21:14:30.121Z,73.40
2018-12-16T21:17:03.434Z,73.20
2018-12-16T21:19:31.285Z,73.70
2018-12-16T21:21:58.830Z,73.20
2018-12-16T21:24:26.447Z,72.80
2018-12-16T21:26:54.257Z,72.80
2018-12-16T21:29:21.837Z,72.50
2018-12-16T21:31:49.362Z,72.80
2018-12-16T21:34:16.942Z,72.80
2018-12-16T21:36:44.555Z,72.50
2018-12-16T21:39:12.405Z,72.40
2018-12-16T21:41:39.941Z,72.60
2018-12-16T21:44:07.488Z,72.80
2018-12-16T21:46:35.222Z,72.90
2018-12-16T21:49:02.758Z,72.60
2018-12-16T21:51:30.338Z,72.60
2018-12-16T21:53:57.934Z,72.40
2018-12-16T21:56:25.854Z,72.40
2018-12-16T21:58:53.425Z,72.40
2018-12-16T22:01:20.966Z,72.60
2018-12-16T22:03:48.520Z,72.70
2018-12-16T22:06:16.349Z,73.10
2018-12-16T22:08:43.881Z,72.70
2018-12-16T22:11:11.437Z,72.30
2018-12-16T22:13:44.092Z,72.30
2018-12-16T22:16:11.680Z,72.10
2018-12-16T22:18:39.529Z,71.90
2018-12-16T22:21:07.597Z,72.10
2018-12-16T22:23:35.155Z,72.50
2018-12-16T22:26:02.922Z,72.30
2018-12-16T22:28:30.466Z,72.40
2018-12-16T22:30:58.248Z,72.40
2018-12-16T22:33:25.815Z,72.20
2018-12-16T22:35:53.389Z,72.10
2018-12-16T22:38:21.705Z,72.30
2018-12-16T22:40:49.281Z,72.40
2018-12-16T22:43:17.100Z,72.70
2018-12-16T22:45:44.677Z,72.50
2018-12-16T22:48:12.261Z,72.50
2018-12-16T22:50:39.777Z,72.30
2018-12-16T22:53:07.334Z,72.10
2018-12-16T22:55:34.873Z,72.00
2018-12-16T22:58:03.093Z,71.90
2018-12-16T23:00:30.734Z,72.00
2018-12-16T23:02:58.301Z,71.70
2018-12-16T23:05:26.005Z,71.40
2018-12-16T23:07:53.544Z,71.20
2018-12-16T23:10:22.840Z,71.70
2018-12-16T23:12:50.423Z,71.50
2018-12-16T23:15:18.623Z,71.80
2018-12-16T23:17:46.193Z,71.80
2018-12-16T23:20:18.044Z,71.50
2018-12-16T23:22:45.642Z,71.20
2018-12-16T23:25:13.892Z,70.90
2018-12-16T23:27:41.454Z,71.10
2018-12-16T23:30:09.522Z,71.20
2018-12-16T23:32:37.291Z,71.50
2018-12-16T23:35:04.943Z,71.40
2018-12-16T23:37:32.509Z,71.60
2018-12-16T23:40:00.680Z,72.00
2018-12-16T23:42:28.350Z,71.80
2018-12-16T23:44:56.011Z,72.10
2018-12-16T23:47:23.893Z,72.40
2018-12-16T23:49:51.457Z,72.10
2018-12-16T23:52:19.060Z,72.00
2018-12-16T23:54:46.375Z,71.80
2018-12-16T23:57:13.930Z,71.60
2018-12-16T23:59:41.779Z,71.50
